createdAt,value
2023-04-19T00:03:52.148Z,10.60
2023-04-19T00:08:44.494Z,11.61
2023-04-19T00:13:36.431Z,11.88
2023-04-19T00:18:28.195Z,12.07
2023-04-19T00:23:20.124Z,11.79
2023-04-19T00:28:11.944Z,11.70
2023-04-19T00:33:03.829Z,13.36
2023-04-19T00:37:55.735Z,11.80
2023-04-19T00:42:47.494Z,12.86
2023-04-19T00:47:39.822Z,12.95
2023-04-19T00:52:33.199Z,11.53
2023-04-19T00:57:25.462Z,12.58
2023-04-19T01:02:17.791Z,11.91
2023-04-19T01:07:09.670Z,12.19
2023-04-19T01:12:04.828Z,12.95
2023-04-19T01:16:57.487Z,10.90
2023-04-19T01:21:52.906Z,10.46
2023-04-19T01:26:44.824Z,11.88
2023-04-19T01:31:36.871Z,13.19
2023-04-19T01:36:29.006Z,10.82
2023-04-19T01:41:22.741Z,13.30
2023-04-19T01:46:14.570Z,11.65
2023-04-19T01:51:06.446Z,11.59
2023-04-19T01:55:59.796Z,9.94
2023-04-19T02:00:51.649Z,12.25
2023-04-19T02:05:43.453Z,12.89
2023-04-19T02:10:35.983Z,12.00
2023-04-19T02:15:27.746Z,11.42
2023-04-19T02:20:19.510Z,11.45
2023-04-19T02:25:13.900Z,10.58
2023-04-19T02:30:06.436Z,11.36
2023-04-19T02:34:58.799Z,11.58
2023-04-19T02:39:50.719Z,13.14
2023-04-19T02:44:42.516Z,12.25
2023-04-19T02:49:37.032Z,11.91
2023-04-19T02:54:29.360Z,11.35
2023-04-19T02:59:21.155Z,12.62
2023-04-19T03:04:13.255Z,11.61
2023-04-19T03:09:06.629Z,12.00
2023-04-19T03:13:58.415Z,11.25
2023-04-19T03:18:50.209Z,10.58
2023-04-19T03:23:46.208Z,11.44
2023-04-19T03:28:38.777Z,11.16
2023-04-19T03:33:46.830Z,11.38
2023-04-19T03:38:40.834Z,10.73
2023-04-19T03:43:36.738Z,10.78
2023-04-19T03:48:28.447Z,12.68
2023-04-19T03:53:21.382Z,10.68
2023-04-19T03:58:13.222Z,10.61
2023-04-19T04:03:27.956Z,11.03
2023-04-19T04:08:20.147Z,10.76
2023-04-19T04:13:12.755Z,12.53
2023-04-19T04:18:24.525Z,12.39
2023-04-19T04:23:16.555Z,11.04
2023-04-19T04:28:13.711Z,10.16
2023-04-19T04:33:06.179Z,10.75
2023-04-19T04:37:59.246Z,11.84
2023-04-19T04:42:53.017Z,10.61
2023-04-19T13:06:49.463Z,16.93
2023-04-19T13:11:41.311Z,16.35
2023-04-19T13:16:33.334Z,15.15
2023-04-19T13:21:25.669Z,15.19
2023-04-19T13:26:17.746Z,16.16
2023-04-19T13:31:09.631Z,16.09
2023-04-19T13:36:01.530Z,16.75
2023-04-19T13:40:53.463Z,16.00
2023-04-19T13:45:45.780Z,16.83
2023-04-19T13:50:37.651Z,16.04
2023-04-19T13:55:29.444Z,16.56
2023-04-19T14:00:21.523Z,15.39
2023-04-19T14:05:13.285Z,15.41
2023-04-19T14:10:07.027Z,14.90
2023-04-19T14:14:59.529Z,16.20
2023-04-19T14:19:51.811Z,15.83
2023-04-19T14:24:43.511Z,14.97
2023-04-19T14:29:35.311Z,14.27
2023-04-19T14:34:28.314Z,14.57
2023-04-19T14:39:20.340Z,14.97
2023-04-19T14:44:12.014Z,14.08
2023-04-19T14:49:05.872Z,14.74
2023-04-19T14:53:59.641Z,15.77
2023-04-19T14:58:53.251Z,16.43
2023-04-19T15:03:45.217Z,14.78
2023-04-19T15:08:37.125Z,15.46
2023-04-19T15:13:29.888Z,15.94
2023-04-19T15:18:21.709Z,15.37
2023-04-19T15:23:13.540Z,16.16
2023-04-19T15:28:05.602Z,15.51
2023-04-19T15:32:57.312Z,13.87
2023-04-19T15:37:49.096Z,15.42
2023-04-19T15:42:40.852Z,15.26
2023-04-19T15:47:34.274Z,13.90
2023-04-19T15:52:26.230Z,14.60
2023-04-19T15:57:18.470Z,14.46
2023-04-19T16:02:10.288Z,15.16
2023-04-19T16:07:02.091Z,15.35
2023-04-19T16:11:53.880Z,14.46
2023-04-19T16:16:45.676Z,14.88
2023-04-19T16:21:37.523Z,14.25
2023-04-19T16:26:29.385Z,14.53
2023-04-19T16:31:21.402Z,13.06
2023-04-19T16:36:13.309Z,14.21
2023-04-19T16:41:05.956Z,14.33
2023-04-19T16:45:57.895Z,12.06
2023-04-19T16:50:49.688Z,12.68
2023-04-19T16:55:41.446Z,14.00
2023-04-19T17:00:33.279Z,14.82
2023-04-19T17:05:25.014Z,14.79
2023-04-19T17:10:16.914Z,13.89
2023-04-19T17:15:08.982Z,14.37
2023-04-19T17:20:00.810Z,13.79
2023-04-19T17:24:54.187Z,14.39
2023-04-19T17:29:45.942Z,12.68
2023-04-19T18:49:26.112Z,11.95
2023-04-19T18:54:19.433Z,11.34
2023-04-19T18:59:11.351Z,12.30
2023-04-19T19:09:00.117Z,9.76
2023-04-19T19:13:52.809Z,11.94
2023-04-19T19:18:49.792Z,10.83
2023-04-19T19:23:45.651Z,9.42
2023-04-19T19:28:49.143Z,9.40
2023-04-19T19:34:18.718Z,11.55
2023-04-19T19:39:46.312Z,9.89
2023-04-19T19:44:54.768Z,9.41
2023-04-19T19:50:17.528Z,9.92
2023-04-19T19:55:01.705Z,11.19
2023-04-19T22:03:27.420Z,6.25
2023-04-19T22:08:19.263Z,8.56
2023-04-19T22:13:10.999Z,7.65
2023-04-19T22:18:03.339Z,7.69
2023-04-19T22:22:56.175Z,8.48
2023-04-19T22:27:48.958Z,8.37
2023-04-19T22:32:41.353Z,7.56
2023-04-19T22:37:33.202Z,7.61
2023-04-19T22:42:24.964Z,6.50
2023-04-19T22:47:17.143Z,6.96
2023-04-19T22:52:09.076Z,7.71
2023-04-19T22:57:00.904Z,8.09
2023-04-19T23:01:52.935Z,5.71
2023-04-19T23:06:45.403Z,8.19
2023-04-19T23:11:37.892Z,7.18
2023-04-19T23:16:29.821Z,7.93
2023-04-19T23:21:21.884Z,6.79
2023-04-19T23:26:13.769Z,7.60
2023-04-19T23:37:43.124Z,6.97
2023-04-19T23:42:39.251Z,6.47
2023-04-19T23:47:31.287Z,6.75
2023-04-19T23:52:23.125Z,6.20
2023-04-19T23:57:15.065Z,8.21
